Time,TemperatureF,DewpointF,PressureIn,WindDirection,WindDirectionDegrees,WindSpeedMPH,WindSpeedGustMPH,Humidity,HourlyPrecipIn,Conditions,Clouds,dailyrainin,SoftwareType,DateUTC
2013-08-10 00:02:00,85.0,-99.9,30.04,SE,143,14.0,16.0,-999,-99.99,,,-99.99,,2013-08-10 05:02:00,
2013-08-10 00:11:00,85.0,-99.9,30.04,SE,140,15.0,17.0,-999,-99.99,,,-99.99,,2013-08-10 05:11:00,
2013-08-10 00:22:00,85.0,-99.9,30.04,SE,136,15.0,17.0,-999,-99.99,,,-99.99,,2013-08-10 05:22:00,
2013-08-10 00:32:00,85.0,-99.9,30.04,SE,140,13.0,15.0,-999,-99.99,,,-99.99,,2013-08-10 05:32:00,
2013-08-10 00:43:00,85.0,-99.9,30.03,SE,134,16.0,19.0,-999,-99.99,,,-99.99,,2013-08-10 05:43:00,
2013-08-10 00:52:00,85.0,-99.9,30.03,SE,143,16.0,19.0,-999,-99.99,,,-99.99,,2013-08-10 05:52:00,
2013-08-10 01:02:00,85.0,-99.9,30.03,SE,142,17.0,19.0,-999,-99.99,,,-99.99,,2013-08-10 06:02:00,
2013-08-10 01:11:00,85.0,-99.9,30.03,SE,145,17.0,18.0,-999,-99.99,,,-99.99,,2013-08-10 06:11:00,
2013-08-10 01:22:00,85.0,-99.9,30.02,SSE,147,16.0,19.0,-999,-99.99,,,-99.99,,2013-08-10 06:22:00,
2013-08-10 01:32:00,85.0,-99.9,30.02,SE,144,17.0,18.0,-999,-99.99,,,-99.99,,2013-08-10 06:32:00,
2013-08-10 01:44:00,85.0,-99.9,30.02,SE,142,17.0,19.0,-999,-99.99,,,-99.99,,2013-08-10 06:44:00,
2013-08-10 01:53:00,85.0,-99.9,30.02,SE,141,16.0,18.0,-999,-99.99,,,-99.99,,2013-08-10 06:53:00,
2013-08-10 02:02:00,85.0,-99.9,30.01,SE,140,15.0,17.0,-999,-99.99,,,-99.99,,2013-08-10 07:02:00,
2013-08-10 02:13:00,85.0,-99.9,30.02,SE,141,14.0,15.0,-999,-99.99,,,-99.99,,2013-08-10 07:13:00,
2013-08-10 02:22:00,85.0,-99.9,30.01,SE,141,13.0,14.0,-999,-99.99,,,-99.99,,2013-08-10 07:22:00,
2013-08-10 02:33:00,84.0,-99.9,30.01,SE,138,15.0,17.0,-999,-99.99,,,-99.99,,2013-08-10 07:33:00,
2013-08-10 02:43:00,85.0,-99.9,30.01,SE,143,15.0,17.0,-999,-99.99,,,-99.99,,2013-08-10 07:43:00,
2013-08-10 02:52:00,84.0,-99.9,30.00,SE,145,17.0,19.0,-999,-99.99,,,-99.99,,2013-08-10 07:52:00,
2013-08-10 03:02:00,84.0,-99.9,30.01,SSE,150,16.0,17.0,-999,-99.99,,,-99.99,,2013-08-10 08:02:00,
2013-08-10 03:12:00,84.0,-99.9,30.00,SE,146,15.0,17.0,-999,-99.99,,,-99.99,,2013-08-10 08:12:00,
2013-08-10 03:22:00,84.0,-99.9,30.00,SE,145,15.0,17.0,-999,-99.99,,,-99.99,,2013-08-10 08:22:00,
2013-08-10 03:32:00,84.0,-99.9,30.01,SE,137,15.0,16.0,-999,-99.99,,,-99.99,,2013-08-10 08:32:00,
2013-08-10 03:43:00,84.0,-99.9,30.01,SE,140,15.0,16.0,-999,-99.99,,,-99.99,,2013-08-10 08:43:00,
2013-08-10 03:53:00,84.0,-99.9,30.01,SE,144,15.0,17.0,-999,-99.99,,,-99.99,,2013-08-10 08:53:00,
2013-08-10 04:02:00,84.0,-99.9,30.01,SE,144,14.0,16.0,-999,-99.99,,,-99.99,,2013-08-10 09:02:00,
2013-08-10 04:12:00,84.0,-99.9,30.01,SE,143,15.0,17.0,-999,-99.99,,,-99.99,,2013-08-10 09:12:00,
2013-08-10 04:22:00,84.0,-99.9,30.01,SE,136,14.0,15.0,-999,-99.99,,,-99.99,,2013-08-10 09:22:00,
2013-08-10 04:32:00,85.0,-99.9,30.01,SSE,148,14.0,16.0,-999,-99.99,,,-99.99,,2013-08-10 09:32:00,
2013-08-10 04:43:00,84.0,-99.9,30.01,SE,138,15.0,17.0,-999,-99.99,,,-99.99,,2013-08-10 09:43:00,
2013-08-10 04:52:00,84.0,-99.9,30.01,SE,135,12.0,14.0,-999,-99.99,,,-99.99,,2013-08-10 09:52:00,
2013-08-10 05:02:00,84.0,-99.9,30.01,SE,136,12.0,13.0,-999,-99.99,,,-99.99,,2013-08-10 10:02:00,
2013-08-10 05:11:00,84.0,-99.9,30.02,SE,137,11.0,13.0,-999,-99.99,,,-99.99,,2013-08-10 10:11:00,
2013-08-10 05:22:00,84.0,-99.9,30.02,SE,146,11.0,12.0,-999,-99.99,,,-99.99,,2013-08-10 10:22:00,
2013-08-10 05:33:00,84.0,-99.9,30.02,SE,133,12.0,13.0,-999,-99.99,,,-99.99,,2013-08-10 10:33:00,
2013-08-10 05:44:00,84.0,-99.9,30.03,SE,137,11.0,12.0,-999,-99.99,,,-99.99,,2013-08-10 10:44:00,
2013-08-10 05:53:00,84.0,-99.9,30.03,SE,136,11.0,13.0,-999,-99.99,,,-99.99,,2013-08-10 10:53:00,
2013-08-10 06:02:00,84.0,-99.9,30.03,SE,142,13.0,15.0,-999,-99.99,,,-99.99,,2013-08-10 11:02:00,
2013-08-10 06:12:00,84.0,-99.9,30.03,SE,143,13.0,15.0,-999,-99.99,,,-99.99,,2013-08-10 11:12:00,
2013-08-10 06:22:00,84.0,-99.9,30.03,SE,145,13.0,14.0,-999,-99.99,,,-99.99,,2013-08-10 11:22:00,
2013-08-10 06:33:00,84.0,-99.9,30.03,SE,139,13.0,16.0,-999,-99.99,,,-99.99,,2013-08-10 11:33:00,
2013-08-10 06:43:00,84.0,-99.9,30.03,SE,136,14.0,17.0,-999,-99.99,,,-99.99,,2013-08-10 11:43:00,
2013-08-10 06:53:00,84.0,-99.9,30.04,SE,143,13.0,15.0,-999,-99.99,,,-99.99,,2013-08-10 11:53:00,
2013-08-10 07:01:00,84.0,-99.9,30.04,SE,134,13.0,16.0,-999,-99.99,,,-99.99,,2013-08-10 12:01:00,
2013-08-10 07:11:00,84.0,-99.9,30.04,SE,140,13.0,14.0,-999,-99.99,,,-99.99,,2013-08-10 12:11:00,
2013-08-10 07:22:00,84.0,-99.9,30.04,SE,135,13.0,15.0,-999,-99.99,,,-99.99,,2013-08-10 12:22:00,
2013-08-10 07:32:00,84.0,-99.9,30.04,SE,142,13.0,15.0,-999,-99.99,,,-99.99,,2013-08-10 12:32:00,
2013-08-10 07:42:00,85.0,-99.9,30.04,SSE,147,13.0,15.0,-999,-99.99,,,-99.99,,2013-08-10 12:42:00,
2013-08-10 07:52:00,85.0,-99.9,30.04,SE,144,13.0,15.0,-999,-99.99,,,-99.99,,2013-08-10 12:52:00,
2013-08-10 08:01:00,85.0,-99.9,30.04,SE,140,13.0,14.0,-999,-99.99,,,-99.99,,2013-08-10 13:01:00,
2013-08-10 08:11:00,85.0,-99.9,30.04,SSE,150,13.0,15.0,-999,-99.99,,,-99.99,,2013-08-10 13:11:00,
2013-08-10 08:22:00,85.0,-99.9,30.04,SE,145,11.0,13.0,-999,-99.99,,,-99.99,,2013-08-10 13:22:00,
2013-08-10 08:32:00,85.0,-99.9,30.05,SE,140,13.0,14.0,-999,-99.99,,,-99.99,,2013-08-10 13:32:00,
2013-08-10 08:43:00,85.0,-99.9,30.05,SSE,148,11.0,13.0,-999,-99.99,,,-99.99,,2013-08-10 13:43:00,
2013-08-10 08:52:00,85.0,-99.9,30.05,SE,133,8.0,9.0,-999,-99.99,,,-99.99,,2013-08-10 13:52:00,
2013-08-10 09:02:00,85.0,-99.9,30.05,SE,125,9.0,11.0,-999,-99.99,,,-99.99,,2013-08-10 14:02:00,
2013-08-10 09:12:00,85.0,-99.9,30.05,SE,143,7.0,9.0,-999,-99.99,,,-99.99,,2013-08-10 14:12:00,
2013-08-10 09:22:00,85.0,-99.9,30.05,SE,131,8.0,11.0,-999,-99.99,,,-99.99,,2013-08-10 14:22:00,
2013-08-10 09:33:00,85.0,-99.9,30.06,SE,128,9.0,10.0,-999,-99.99,,,-99.99,,2013-08-10 14:33:00,
2013-08-10 09:43:00,85.0,-99.9,30.06,SE,126,8.0,9.0,-999,-99.99,,,-99.99,,2013-08-10 14:43:00,
2013-08-10 09:53:00,85.0,-99.9,30.06,ESE,117,8.0,10.0,-999,-99.99,,,-99.99,,2013-08-10 14:53:00,
2013-08-10 10:02:00,85.0,-99.9,30.07,ESE,119,9.0,10.0,-999,-99.99,,,-99.99,,2013-08-10 15:02:00,
2013-08-10 10:12:00,85.0,-99.9,30.07,SE,127,8.0,10.0,-999,-99.99,,,-99.99,,2013-08-10 15:12:00,
2013-08-10 10:22:00,85.0,-99.9,30.07,SE,129,8.0,11.0,-999,-99.99,,,-99.99,,2013-08-10 15:22:00,
2013-08-10 10:34:00,85.0,-99.9,30.07,ESE,120,7.0,9.0,-999,-99.99,,,-99.99,,2013-08-10 15:34:00,
2013-08-10 10:43:00,85.0,-99.9,30.08,SE,132,8.0,10.0,-999,-99.99,,,-99.99,,2013-08-10 15:43:00,
2013-08-10 10:52:00,85.0,-99.9,30.08,SE,135,8.0,10.0,-999,-99.99,,,-99.99,,2013-08-10 15:52:00,
2013-08-10 11:02:00,86.0,-99.9,30.09,SE,124,8.0,11.0,-999,-99.99,,,-99.99,,2013-08-10 16:02:00,
2013-08-10 11:12:00,86.0,-99.9,30.09,ESE,122,10.0,11.0,-999,-99.99,,,-99.99,,2013-08-10 16:12:00,
2013-08-10 11:22:00,86.0,-99.9,30.09,SE,133,10.0,12.0,-999,-99.99,,,-99.99,,2013-08-10 16:22:00,
2013-08-10 11:32:00,86.0,-99.9,30.09,SE,131,10.0,12.0,-999,-99.99,,,-99.99,,2013-08-10 16:32:00,
2013-08-10 11:43:00,87.0,-99.9,30.09,SE,143,8.0,10.0,-999,-99.99,,,-99.99,,2013-08-10 16:43:00,
2013-08-10 11:53:00,86.0,-99.9,30.09,SE,132,9.0,10.0,-999,-99.99,,,-99.99,,2013-08-10 16:53:00,
2013-08-10 12:02:00,86.0,-99.9,30.09,SE,132,8.0,11.0,-999,-99.99,,,-99.99,,2013-08-10 17:02:00,
2013-08-10 12:12:00,86.0,-99.9,30.10,ESE,120,9.0,12.0,-999,-99.99,,,-99.99,,2013-08-10 17:12:00,
2013-08-10 12:33:00,83.0,-99.9,30.09,ENE,74,15.0,18.0,-999,-99.99,,,-99.99,,2013-08-10 17:33:00,
2013-08-10 12:43:00,83.0,-99.9,30.10,East,79,11.0,15.0,-999,-99.99,,,-99.99,,2013-08-10 17:43:00,
2013-08-10 12:52:00,81.0,-99.9,30.09,ENE,66,15.0,18.0,-999,-99.99,,,-99.99,,2013-08-10 17:52:00,
2013-08-10 13:01:00,81.0,-99.9,30.09,ENE,68,12.0,14.0,-999,-99.99,,,-99.99,,2013-08-10 18:01:00,
2013-08-10 13:11:00,82.0,-99.9,30.08,ENE,71,11.0,13.0,-999,-99.99,,,-99.99,,2013-08-10 18:11:00,
2013-08-10 13:23:00,84.0,-99.9,30.08,East,94,6.0,8.0,-999,-99.99,,,-99.99,,2013-08-10 18:23:00,
2013-08-10 13:32:00,85.0,-99.9,30.08,SE,133,8.0,11.0,-999,-99.99,,,-99.99,,2013-08-10 18:32:00,
2013-08-10 13:44:00,84.0,-99.9,30.08,ESE,113,9.0,12.0,-999,-99.99,,,-99.99,,2013-08-10 18:44:00,
2013-08-10 13:52:00,83.0,-99.9,30.07,SE,126,9.0,12.0,-999,-99.99,,,-99.99,,2013-08-10 18:52:00,
2013-08-10 14:02:00,82.0,-99.9,30.07,South,183,12.0,14.0,-999,-99.99,,,-99.99,,2013-08-10 19:02:00,
2013-08-10 14:12:00,83.0,-99.9,30.07,South,184,10.0,13.0,-999,-99.99,,,-99.99,,2013-08-10 19:12:00,
2013-08-10 14:22:00,84.0,-99.9,30.07,South,179,10.0,12.0,-999,-99.99,,,-99.99,,2013-08-10 19:22:00,
2013-08-10 14:33:00,84.0,-99.9,30.07,South,179,10.0,12.0,-999,-99.99,,,-99.99,,2013-08-10 19:33:00,
2013-08-10 14:44:00,85.0,-99.9,30.06,South,175,9.0,10.0,-999,-99.99,,,-99.99,,2013-08-10 19:44:00,
2013-08-10 14:53:00,84.0,-99.9,30.06,SSE,163,10.0,12.0,-999,-99.99,,,-99.99,,2013-08-10 19:53:00,
2013-08-10 15:02:00,84.0,-99.9,30.06,SSE,164,12.0,14.0,-999,-99.99,,,-99.99,,2013-08-10 20:02:00,
2013-08-10 15:12:00,84.0,-99.9,30.06,SSE,167,12.0,14.0,-999,-99.99,,,-99.99,,2013-08-10 20:12:00,
2013-08-10 15:22:00,84.0,-99.9,30.06,SSE,162,11.0,14.0,-999,-99.99,,,-99.99,,2013-08-10 20:22:00,
2013-08-10 15:33:00,84.0,-99.9,30.05,SSE,156,10.0,12.0,-999,-99.99,,,-99.99,,2013-08-10 20:33:00,
2013-08-10 15:43:00,84.0,-99.9,30.05,SSE,159,10.0,12.0,-999,-99.99,,,-99.99,,2013-08-10 20:43:00,
2013-08-10 15:53:00,84.0,-99.9,30.05,SSE,163,12.0,15.0,-999,-99.99,,,-99.99,,2013-08-10 20:53:00,
2013-08-10 16:02:00,84.0,-99.9,30.05,SSE,163,12.0,14.0,-999,-99.99,,,-99.99,,2013-08-10 21:02:00,
2013-08-10 16:12:00,84.0,-99.9,30.05,SSE,151,12.0,14.0,-999,-99.99,,,-99.99,,2013-08-10 21:12:00,
2013-08-10 16:22:00,84.0,-99.9,30.05,SE,144,9.0,12.0,-999,-99.99,,,-99.99,,2013-08-10 21:22:00,
2013-08-10 16:32:00,84.0,-99.9,30.04,SSE,164,9.0,11.0,-999,-99.99,,,-99.99,,2013-08-10 21:32:00,
2013-08-10 16:43:00,84.0,-99.9,30.04,SSE,155,9.0,11.0,-999,-99.99,,,-99.99,,2013-08-10 21:43:00,
2013-08-10 16:52:00,84.0,-99.9,30.04,SSE,165,9.0,11.0,-999,-99.99,,,-99.99,,2013-08-10 21:52:00,
2013-08-10 17:02:00,84.0,-99.9,30.04,South,169,10.0,12.0,-999,-99.99,,,-99.99,,2013-08-10 22:02:00,
2013-08-10 17:11:00,84.0,-99.9,30.04,South,171,11.0,13.0,-999,-99.99,,,-99.99,,2013-08-10 22:11:00,
2013-08-10 17:21:00,84.0,-99.9,30.04,SSE,162,9.0,10.0,-999,-99.99,,,-99.99,,2013-08-10 22:21:00,
2013-08-10 17:32:00,84.0,-99.9,30.04,SSE,160,8.0,10.0,-999,-99.99,,,-99.99,,2013-08-10 22:32:00,
2013-08-10 17:43:00,83.0,-99.9,30.04,SSE,163,8.0,10.0,-999,-99.99,,,-99.99,,2013-08-10 22:43:00,
2013-08-10 17:53:00,83.0,-99.9,30.03,SSE,164,10.0,11.0,-999,-99.99,,,-99.99,,2013-08-10 22:53:00,
2013-08-10 18:02:00,83.0,-99.9,30.04,SSE,162,10.0,12.0,-999,-99.99,,,-99.99,,2013-08-10 23:02:00,
2013-08-10 18:12:00,83.0,-99.9,30.04,SSE,164,9.0,10.0,-999,-99.99,,,-99.99,,2013-08-10 23:12:00,
2013-08-10 18:22:00,84.0,-99.9,30.04,South,169,8.0,10.0,-999,-99.99,,,-99.99,,2013-08-10 23:22:00,
2013-08-10 18:33:00,84.0,-99.9,30.03,South,169,9.0,11.0,-999,-99.99,,,-99.99,,2013-08-10 23:33:00,
2013-08-10 18:43:00,83.0,-99.9,30.04,SSE,165,9.0,11.0,-999,-99.99,,,-99.99,,2013-08-10 23:43:00,
2013-08-10 18:53:00,83.0,-99.9,30.04,SSE,161,9.0,10.0,-999,-99.99,,,-99.99,,2013-08-10 23:53:00,
2013-08-10 19:02:00,83.0,-99.9,30.04,SSE,155,8.0,9.0,-999,-99.99,,,-99.99,,2013-08-11 00:02:00,
2013-08-10 19:11:00,83.0,-99.9,30.04,SSE,150,9.0,10.0,-999,-99.99,,,-99.99,,2013-08-11 00:11:00,
2013-08-10 19:22:00,83.0,-99.9,30.05,SSE,158,10.0,12.0,-999,-99.99,,,-99.99,,2013-08-11 00:22:00,
2013-08-10 19:32:00,84.0,-99.9,30.05,SSE,159,9.0,11.0,-999,-99.99,,,-99.99,,2013-08-11 00:32:00,
2013-08-10 19:42:00,83.0,-99.9,30.06,SE,139,9.0,10.0,-999,-99.99,,,-99.99,,2013-08-11 00:42:00,
2013-08-10 19:52:00,83.0,-99.9,30.06,SE,142,7.0,10.0,-999,-99.99,,,-99.99,,2013-08-11 00:52:00,
2013-08-10 20:02:00,83.0,-99.9,30.06,SE,145,9.0,11.0,-999,-99.99,,,-99.99,,2013-08-11 01:02:00,
2013-08-10 20:12:00,83.0,-99.9,30.06,SE,138,6.0,8.0,-999,-99.99,,,-99.99,,2013-08-11 01:12:00,
2013-08-10 20:22:00,83.0,-99.9,30.07,SE,144,7.0,8.0,-999,-99.99,,,-99.99,,2013-08-11 01:22:00,
2013-08-10 20:32:00,84.0,-99.9,30.07,SSE,159,6.0,7.0,-999,-99.99,,,-99.99,,2013-08-11 01:32:00,
2013-08-10 20:43:00,84.0,-99.9,30.07,SSE,162,7.0,9.0,-999,-99.99,,,-99.99,,2013-08-11 01:43:00,
2013-08-10 20:54:00,84.0,-99.9,30.07,SSE,148,6.0,9.0,-999,-99.99,,,-99.99,,2013-08-11 01:54:00,
2013-08-10 21:02:00,84.0,-99.9,30.07,SSE,157,8.0,9.0,-999,-99.99,,,-99.99,,2013-08-11 02:02:00,
2013-08-10 21:12:00,83.0,-99.9,30.07,SSE,156,9.0,10.0,-999,-99.99,,,-99.99,,2013-08-11 02:12:00,
2013-08-10 21:22:00,83.0,-99.9,30.07,SSE,158,9.0,11.0,-999,-99.99,,,-99.99,,2013-08-11 02:22:00,
2013-08-10 21:32:00,83.0,-99.9,30.08,SSE,154,9.0,11.0,-999,-99.99,,,-99.99,,2013-08-11 02:32:00,
2013-08-10 21:43:00,83.0,-99.9,30.08,SSE,165,9.0,11.0,-999,-99.99,,,-99.99,,2013-08-11 02:43:00,
2013-08-10 21:58:00,83.0,-99.9,30.08,SSE,165,10.0,11.0,-999,-99.99,,,-99.99,,2013-08-11 02:58:00,
2013-08-10 22:07:00,84.0,-99.9,30.08,SSE,162,11.0,13.0,-999,-99.99,,,-99.99,,2013-08-11 03:07:00,
2013-08-10 22:18:00,83.0,-99.9,30.08,SSE,161,11.0,13.0,-999,-99.99,,,-99.99,,2013-08-11 03:18:00,
2013-08-10 22:29:00,83.0,-99.9,30.08,SSE,163,13.0,16.0,-999,-99.99,,,-99.99,,2013-08-11 03:29:00,
2013-08-10 22:36:00,83.0,-99.9,30.08,SSE,165,14.0,15.0,-999,-99.99,,,-99.99,,2013-08-11 03:36:00,
2013-08-10 22:47:00,83.0,-99.9,30.08,South,169,14.0,17.0,-999,-99.99,,,-99.99,,2013-08-11 03:47:00,
2013-08-10 22:58:00,83.0,-99.9,30.08,SSE,159,12.0,14.0,-999,-99.99,,,-99.99,,2013-08-11 03:58:00,
2013-08-10 23:01:00,83.0,-99.9,30.08,SSE,155,12.0,13.0,-999,-99.99,,,-99.99,,2013-08-11 04:01:00,
2013-08-10 23:12:00,83.0,-99.9,30.08,South,169,12.0,14.0,-999,-99.99,,,-99.99,,2013-08-11 04:12:00,
2013-08-10 23:22:00,83.0,-99.9,30.08,SSE,155,13.0,15.0,-999,-99.99,,,-99.99,,2013-08-11 04:22:00,
2013-08-10 23:32:00,83.0,-99.9,30.07,SSE,162,13.0,15.0,-999,-99.99,,,-99.99,,2013-08-11 04:32:00,
2013-08-10 23:43:00,83.0,-99.9,30.07,SSE,155,15.0,17.0,-999,-99.99,,,-99.99,,2013-08-11 04:43:00,
2013-08-10 23:53:00,83.0,-99.9,30.07,SSE,165,15.0,17.0,-999,-99.99,,,-99.99,,2013-08-11 04:53:00,